createdAt,value
2018-07-25T00:01:53.795Z,17.20
2018-07-25T00:04:22.263Z,17.20
2018-07-25T00:06:50.643Z,17.10
2018-07-25T00:09:19.067Z,17.10
2018-07-25T00:11:47.503Z,17.00
2018-07-25T00:14:15.939Z,17.00
2018-07-25T00:16:44.373Z,16.90
2018-07-25T00:19:13.049Z,16.90
2018-07-25T00:21:41.452Z,16.90
2018-07-25T00:24:09.921Z,16.90
2018-07-25T00:26:38.346Z,16.90
2018-07-25T00:29:06.889Z,16.80
2018-07-25T00:32:37.977Z,16.90
2018-07-25T00:35:06.432Z,16.80
2018-07-25T00:37:34.867Z,16.80
2018-07-25T00:40:03.434Z,16.80
2018-07-25T00:42:31.887Z,16.80
2018-07-25T00:45:00.349Z,16.70
2018-07-25T00:47:28.766Z,16.70
2018-07-25T00:49:57.217Z,16.70
2018-07-25T00:52:25.648Z,16.60
2018-07-25T00:57:22.146Z,16.60
2018-07-25T00:59:50.565Z,16.60
2018-07-25T01:02:18.994Z,16.60
2018-07-25T01:04:47.434Z,16.60
2018-07-25T01:07:15.825Z,16.60
2018-07-25T01:09:44.319Z,16.60
2018-07-25T01:12:12.757Z,16.50
2018-07-25T01:14:41.172Z,16.50
2018-07-25T01:17:09.556Z,16.40
2018-07-25T01:19:38.032Z,16.30
2018-07-25T01:22:06.464Z,16.20
2018-07-25T01:24:34.906Z,16.20
2018-07-25T01:27:03.368Z,16.10
2018-07-25T01:29:31.780Z,16.00
2018-07-25T01:32:00.173Z,16.00
2018-07-25T01:34:28.643Z,16.00
2018-07-25T01:36:57.056Z,15.90
2018-07-25T01:39:25.474Z,15.80
2018-07-25T01:41:53.913Z,15.80
2018-07-25T01:44:22.852Z,15.70
2018-07-25T01:46:51.291Z,15.70
2018-07-25T01:51:47.849Z,15.80
2018-07-25T01:54:16.273Z,15.70
2018-07-25T01:56:44.688Z,15.70
2018-07-25T01:59:13.092Z,15.70
2018-07-25T02:01:41.752Z,15.60
2018-07-25T02:04:10.364Z,15.60
2018-07-25T02:06:38.771Z,15.60
2018-07-25T02:09:09.625Z,15.60
2018-07-25T02:11:38.155Z,15.50
2018-07-25T02:14:06.651Z,15.50
2018-07-25T02:16:35.045Z,15.50
2018-07-25T02:19:03.498Z,15.60
2018-07-25T02:21:31.902Z,15.60
2018-07-25T02:24:00.294Z,15.60
2018-07-25T02:26:28.779Z,15.50
2018-07-25T02:28:57.192Z,15.50
2018-07-25T02:31:25.753Z,15.40
2018-07-25T02:33:59.477Z,15.40
2018-07-25T02:36:27.912Z,15.30
2018-07-25T02:38:56.502Z,15.30
2018-07-25T02:41:24.960Z,15.30
2018-07-25T02:43:53.463Z,15.30
2018-07-25T02:46:21.907Z,15.30
2018-07-25T02:48:50.294Z,15.30
2018-07-25T02:51:18.708Z,15.30
2018-07-25T02:53:47.138Z,15.30
2018-07-25T02:56:15.577Z,15.30
2018-07-25T02:58:44.009Z,15.30
2018-07-25T03:01:12.425Z,15.20
2018-07-25T03:03:40.820Z,15.10
2018-07-25T03:06:09.233Z,15.00
2018-07-25T03:13:33.943Z,15.00
2018-07-25T03:16:07.125Z,15.00
2018-07-25T03:18:35.580Z,15.00
2018-07-25T03:21:04.090Z,15.00
2018-07-25T03:23:33.713Z,14.90
2018-07-25T03:26:02.202Z,15.00
2018-07-25T03:30:59.474Z,15.00
2018-07-25T03:33:28.034Z,14.90
2018-07-25T03:35:57.663Z,15.00
2018-07-25T03:38:26.834Z,15.00
2018-07-25T03:43:23.433Z,14.90
2018-07-25T03:45:51.899Z,14.90
2018-07-25T03:48:20.314Z,14.90
2018-07-25T03:50:48.752Z,14.90
2018-07-25T03:53:17.173Z,15.00
2018-07-25T03:55:45.606Z,15.00
2018-07-25T03:58:14.092Z,15.00
2018-07-25T04:00:42.500Z,15.00
2018-07-25T04:03:10.917Z,15.00
2018-07-25T04:05:39.379Z,15.00
2018-07-25T04:08:07.836Z,15.00
2018-07-25T04:10:36.324Z,15.00
2018-07-25T04:13:04.872Z,15.10
2018-07-25T04:15:33.330Z,15.20
2018-07-25T04:20:29.887Z,15.30
2018-07-25T04:22:58.315Z,15.30
2018-07-25T04:25:26.717Z,15.40
2018-07-25T04:27:55.128Z,15.50
2018-07-25T04:30:23.528Z,15.60
2018-07-25T04:32:51.965Z,15.70
2018-07-25T04:35:20.356Z,15.80
2018-07-25T04:37:48.760Z,15.90
2018-07-25T04:40:17.191Z,16.00
2018-07-25T04:42:45.626Z,16.10
2018-07-25T04:45:14.052Z,16.20
2018-07-25T04:47:42.489Z,16.40
2018-07-25T04:50:10.959Z,16.40
2018-07-25T04:52:39.428Z,16.50
2018-07-25T04:57:36.015Z,16.80
2018-07-25T05:00:04.948Z,16.80
2018-07-25T05:05:01.611Z,17.00
2018-07-25T05:07:30.040Z,17.10
2018-07-25T05:09:58.560Z,17.20
2018-07-25T05:12:26.969Z,17.30
2018-07-25T05:14:55.442Z,17.50
2018-07-25T05:19:52.023Z,17.70
2018-07-25T05:22:20.457Z,17.70
2018-07-25T05:32:13.332Z,18.30
2018-07-25T05:34:41.749Z,18.40
2018-07-25T05:37:10.270Z,18.50
2018-07-25T05:39:38.690Z,18.60
2018-07-25T05:42:07.181Z,18.80
2018-07-25T05:44:35.597Z,18.80
2018-07-25T05:47:04.160Z,19.00
2018-07-25T05:49:32.684Z,19.10
2018-07-25T05:52:01.059Z,19.20
2018-07-25T05:54:29.529Z,19.40
2018-07-25T05:56:57.974Z,19.50
2018-07-25T05:59:26.407Z,19.60
2018-07-25T06:01:54.911Z,19.60
2018-07-25T06:04:23.335Z,20.00
2018-07-25T06:06:51.802Z,20.10
2018-07-25T06:09:20.208Z,20.30
2018-07-25T06:14:16.821Z,20.90
2018-07-25T06:16:45.168Z,21.20
2018-07-25T06:19:13.685Z,21.80
2018-07-25T06:21:42.089Z,22.20
2018-07-25T06:24:10.640Z,22.80
2018-07-25T06:26:39.045Z,23.70
2018-07-25T06:29:07.458Z,24.10
2018-07-25T06:31:35.853Z,24.90
2018-07-25T06:34:04.338Z,25.50
2018-07-25T06:36:32.756Z,26.20
2018-07-25T06:39:01.198Z,27.20
2018-07-25T06:41:29.641Z,28.00
2018-07-25T06:43:58.255Z,28.80
2018-07-25T06:46:26.648Z,29.80
2018-07-25T06:48:55.061Z,29.90
2018-07-25T06:51:23.527Z,30.90
2018-07-25T06:53:51.954Z,31.80
2018-07-25T06:56:20.344Z,32.50
2018-07-25T06:58:48.802Z,33.40
2018-07-25T07:01:17.609Z,33.30
2018-07-25T07:03:46.107Z,32.50
2018-07-25T07:06:14.552Z,31.80
2018-07-25T07:08:43.018Z,32.10
2018-07-25T07:11:11.419Z,32.10
2018-07-25T07:13:39.879Z,32.70
2018-07-25T07:16:08.289Z,32.50
2018-07-25T07:18:36.786Z,32.50
2018-07-25T07:21:05.234Z,33.30
2018-07-25T07:23:33.729Z,33.60
2018-07-25T07:26:02.191Z,34.40
2018-07-25T07:28:30.619Z,35.50
2018-07-25T07:30:59.163Z,36.70
2018-07-25T07:33:27.597Z,36.90
2018-07-25T07:35:55.992Z,36.90
2018-07-25T07:38:24.444Z,37.70
2018-07-25T07:40:52.860Z,37.30
2018-07-25T07:43:21.333Z,37.90
2018-07-25T07:45:49.736Z,38.10
2018-07-25T07:48:18.279Z,37.20
2018-07-25T07:50:46.704Z,38.50
2018-07-25T07:53:15.166Z,39.00
2018-07-25T07:55:43.599Z,39.00
2018-07-25T07:58:12.033Z,39.30
2018-07-25T08:00:40.464Z,39.40
2018-07-25T08:03:08.872Z,39.40
2018-07-25T08:05:37.296Z,38.60
2018-07-25T08:08:05.741Z,38.30
2018-07-25T08:10:34.240Z,39.40
2018-07-25T08:13:02.682Z,39.10
2018-07-25T08:15:31.163Z,40.00
2018-07-25T08:17:59.662Z,40.60
2018-07-25T08:20:28.079Z,40.40
2018-07-25T08:22:56.553Z,40.10
2018-07-25T08:25:24.972Z,40.10
2018-07-25T08:27:53.389Z,39.20
2018-07-25T08:30:21.850Z,38.60
2018-07-25T08:32:50.244Z,39.40
2018-07-25T08:35:18.704Z,39.00
2018-07-25T08:37:47.113Z,38.70
2018-07-25T08:40:15.589Z,38.90
2018-07-25T08:42:44.049Z,39.50
2018-07-25T08:45:12.484Z,40.10
2018-07-25T08:47:40.992Z,41.10
2018-07-25T08:50:10.066Z,41.20
2018-07-25T08:52:38.940Z,41.10
2018-07-25T08:55:07.326Z,40.80
2018-07-25T08:57:35.718Z,40.60
2018-07-25T09:00:05.045Z,40.20
2018-07-25T09:02:33.472Z,39.90
2018-07-25T09:05:01.904Z,39.80
2018-07-25T09:07:30.365Z,40.00
2018-07-25T09:09:58.823Z,40.40
2018-07-25T09:12:27.348Z,41.00
2018-07-25T09:14:55.773Z,41.20
2018-07-25T09:17:24.196Z,40.90
2018-07-25T09:19:52.680Z,39.50
2018-07-25T09:22:21.165Z,38.00
2018-07-25T09:24:49.584Z,36.30
2018-07-25T09:27:18.049Z,35.60
2018-07-25T09:29:46.466Z,36.50
2018-07-25T09:32:14.868Z,37.60
2018-07-25T09:34:43.373Z,38.60
2018-07-25T09:37:11.781Z,39.40
2018-07-25T09:39:40.279Z,40.30
2018-07-25T09:42:08.903Z,40.30
2018-07-25T09:44:37.409Z,39.90
2018-07-25T09:47:05.915Z,39.50
2018-07-25T09:52:02.437Z,39.70
2018-07-25T09:56:59.014Z,39.50
2018-07-25T09:59:27.457Z,38.50
2018-07-25T10:01:55.919Z,38.40
2018-07-25T10:04:24.324Z,36.30
2018-07-25T10:06:52.836Z,36.30
2018-07-25T10:09:21.252Z,37.20
2018-07-25T10:11:49.697Z,37.10
2018-07-25T10:14:18.109Z,37.50
2018-07-25T10:16:46.524Z,37.50
2018-07-25T10:19:14.944Z,38.30
2018-07-25T10:21:43.414Z,37.20
2018-07-25T10:24:11.844Z,36.70
2018-07-25T10:29:08.413Z,35.60
2018-07-25T10:34:05.076Z,37.10
2018-07-25T10:36:33.529Z,37.40
2018-07-25T10:39:02.057Z,37.30
2018-07-25T10:41:30.515Z,37.00
2018-07-25T10:43:58.920Z,36.60
2018-07-25T10:46:27.349Z,35.40
2018-07-25T10:51:23.910Z,32.80
2018-07-25T10:53:52.383Z,33.80
2018-07-25T10:56:20.813Z,35.10
2018-07-25T10:58:49.283Z,35.90
2018-07-25T11:01:17.748Z,36.40
2018-07-25T11:03:46.179Z,36.10
2018-07-25T11:08:42.804Z,34.00
2018-07-25T11:11:11.267Z,33.10
2018-07-25T11:13:39.732Z,32.70
2018-07-25T11:16:08.181Z,32.50
2018-07-25T11:18:36.612Z,32.00
2018-07-25T11:21:05.088Z,31.50
2018-07-25T11:23:33.568Z,31.50
2018-07-25T11:26:02.049Z,31.30
2018-07-25T11:28:30.523Z,30.90
2018-07-25T11:30:58.968Z,30.50
2018-07-25T11:33:27.404Z,30.20
2018-07-25T11:35:55.908Z,30.00
2018-07-25T11:38:24.353Z,29.90
2018-07-25T11:40:52.815Z,29.90
2018-07-25T11:43:21.288Z,29.90
2018-07-25T11:45:49.681Z,30.20
2018-07-25T11:48:18.140Z,30.50
2018-07-25T11:53:14.729Z,30.70
2018-07-25T11:55:43.184Z,30.30
2018-07-25T12:00:39.669Z,30.10
2018-07-25T12:03:08.132Z,29.70
2018-07-25T12:05:36.575Z,29.60
2018-07-25T12:08:05.368Z,29.70
2018-07-25T12:10:33.831Z,29.60
2018-07-25T12:13:02.424Z,29.50
2018-07-25T12:15:30.804Z,29.50
2018-07-25T12:20:27.404Z,29.40
2018-07-25T12:22:55.896Z,29.40
2018-07-25T12:25:24.395Z,29.80
2018-07-25T12:27:53.479Z,29.90
2018-07-25T12:30:22.003Z,29.90
2018-07-25T12:32:50.459Z,29.80
2018-07-25T12:35:18.897Z,29.70
2018-07-25T12:37:47.487Z,29.60
2018-07-25T12:40:15.984Z,29.70
2018-07-25T12:42:45.101Z,29.60
2018-07-25T12:45:14.004Z,29.60
2018-07-25T12:47:42.441Z,29.50
2018-07-25T12:50:10.902Z,29.40
2018-07-25T12:52:39.357Z,29.40
2018-07-25T12:55:07.784Z,29.40
2018-07-25T12:57:36.294Z,29.40
2018-07-25T13:00:06.460Z,29.10
2018-07-25T13:02:34.939Z,29.30
2018-07-25T13:05:03.424Z,29.40
2018-07-25T13:07:32.048Z,29.30
2018-07-25T13:10:00.464Z,29.30
2018-07-25T13:12:28.905Z,29.20
2018-07-25T13:14:57.340Z,29.30
2018-07-25T13:17:25.806Z,29.40
2018-07-25T13:19:54.253Z,29.40
2018-07-25T13:22:22.735Z,29.30
2018-07-25T13:24:51.181Z,29.20
2018-07-25T13:27:19.655Z,29.10
2018-07-25T13:29:48.113Z,29.00
2018-07-25T13:32:16.513Z,29.00
2018-07-25T13:34:45.133Z,29.00
2018-07-25T13:37:13.553Z,29.20
2018-07-25T13:39:42.021Z,29.40
2018-07-25T13:42:10.520Z,29.30
2018-07-25T13:44:38.995Z,29.30
2018-07-25T13:47:07.506Z,29.40
2018-07-25T13:49:35.980Z,29.30
2018-07-25T13:52:04.486Z,29.30
2018-07-25T13:54:32.943Z,29.40
2018-07-25T13:59:29.527Z,29.40
2018-07-25T14:01:57.936Z,29.30
2018-07-25T14:04:26.384Z,29.10
2018-07-25T14:06:54.849Z,29.00
2018-07-25T14:09:23.328Z,29.00
2018-07-25T14:11:51.864Z,29.00
2018-07-25T14:14:20.320Z,28.90
2018-07-25T14:16:48.799Z,28.90
2018-07-25T14:21:45.415Z,28.90
2018-07-25T14:24:13.850Z,29.00
2018-07-25T14:29:10.499Z,29.20
2018-07-25T14:31:38.922Z,29.40
2018-07-25T14:34:07.384Z,29.40
2018-07-25T14:36:35.814Z,29.50
2018-07-25T14:39:06.878Z,29.70
2018-07-25T14:41:35.355Z,29.70
2018-07-25T14:44:03.917Z,29.70
2018-07-25T14:49:00.478Z,29.70
2018-07-25T14:51:28.970Z,29.60
2018-07-25T14:53:57.859Z,29.60
2018-07-25T14:56:26.305Z,29.40
2018-07-25T14:58:54.748Z,29.30
2018-07-25T15:01:23.262Z,29.20
2018-07-25T15:03:51.648Z,29.00
2018-07-25T15:06:20.066Z,28.90
2018-07-25T15:08:48.500Z,28.90
2018-07-25T15:11:17.053Z,28.80
2018-07-25T15:13:45.495Z,28.90
2018-07-25T15:16:14.102Z,29.00
2018-07-25T15:21:10.933Z,29.30
2018-07-25T15:24:02.965Z,28.90
2018-07-25T15:26:31.412Z,28.30
2018-07-25T15:29:00.632Z,28.00
2018-07-25T15:31:29.085Z,27.50
2018-07-25T15:33:57.746Z,27.20
2018-07-25T15:36:51.680Z,27.10
2018-07-25T15:39:21.194Z,27.00
2018-07-25T15:41:50.417Z,27.00
2018-07-25T15:44:20.018Z,27.10
2018-07-25T15:46:48.473Z,27.20
2018-07-25T15:49:16.924Z,27.10
2018-07-25T15:51:45.412Z,26.90
2018-07-25T15:54:13.881Z,26.70
2018-07-25T15:56:42.473Z,26.60
2018-07-25T15:59:10.942Z,26.40
2018-07-25T16:01:39.420Z,26.30
2018-07-25T16:04:08.353Z,26.20
2018-07-25T16:06:36.858Z,26.10
2018-07-25T16:09:08.049Z,26.00
2018-07-25T16:11:36.744Z,25.90
2018-07-25T16:14:05.475Z,25.90
2018-07-25T16:16:33.956Z,25.90
2018-07-25T16:19:02.389Z,26.00
2018-07-25T16:21:30.836Z,26.00
2018-07-25T16:23:59.469Z,26.00
2018-07-25T16:26:27.933Z,26.10
2018-07-25T16:28:56.406Z,26.10
2018-07-25T16:31:24.874Z,26.20
2018-07-25T16:36:21.493Z,26.20
2018-07-25T16:38:49.905Z,26.10
2018-07-25T16:41:18.396Z,26.00
2018-07-25T16:43:46.877Z,25.90
2018-07-25T16:46:15.456Z,25.80
2018-07-25T16:48:43.888Z,25.70
2018-07-25T16:53:40.499Z,25.70
2018-07-25T16:58:37.324Z,25.60
2018-07-25T17:01:05.876Z,25.50
2018-07-25T17:03:34.280Z,25.40
2018-07-25T17:06:02.750Z,25.30
2018-07-25T17:08:31.199Z,25.30
2018-07-25T17:10:59.699Z,25.30
2018-07-25T17:15:56.323Z,25.10
2018-07-25T17:18:24.762Z,25.00
2018-07-25T17:20:53.553Z,24.90
2018-07-25T17:25:50.302Z,24.70
2018-07-25T17:28:18.748Z,24.70
2018-07-25T17:30:47.374Z,24.60
2018-07-25T17:33:16.779Z,24.60
2018-07-25T17:35:45.232Z,24.60
2018-07-25T17:38:13.951Z,24.60
2018-07-25T17:40:42.486Z,24.60
2018-07-25T17:43:10.962Z,24.60
2018-07-25T17:45:39.392Z,24.60
2018-07-25T17:50:36.130Z,24.50
2018-07-25T17:53:04.711Z,24.30
2018-07-25T17:55:33.210Z,24.30
2018-07-25T17:58:02.095Z,24.20
2018-07-25T18:00:30.557Z,24.10
2018-07-25T18:02:59.056Z,24.10
2018-07-25T18:05:27.528Z,24.00
2018-07-25T18:07:55.988Z,23.90
2018-07-25T18:10:24.437Z,23.90
2018-07-25T18:12:58.159Z,23.80
2018-07-25T18:15:26.593Z,23.70
2018-07-25T18:17:55.085Z,23.70
2018-07-25T18:20:23.538Z,23.70
2018-07-25T18:22:52.047Z,23.50
2018-07-25T18:25:20.436Z,23.20
2018-07-25T18:27:48.870Z,23.10
2018-07-25T18:30:17.324Z,23.10
2018-07-25T18:32:45.859Z,23.00
2018-07-25T18:35:14.329Z,23.00
2018-07-25T18:37:42.796Z,23.00
2018-07-25T18:40:11.287Z,23.10
2018-07-25T18:42:40.039Z,23.00
2018-07-25T18:45:08.548Z,23.00
2018-07-25T18:47:36.975Z,22.90
2018-07-25T18:50:07.144Z,22.80
2018-07-25T18:52:35.651Z,22.70
2018-07-25T18:55:04.144Z,22.70
2018-07-25T18:57:32.616Z,22.60
2018-07-25T19:02:29.450Z,22.50
2018-07-25T19:04:57.899Z,22.50
2018-07-25T19:07:26.360Z,22.40
2018-07-25T19:09:54.779Z,22.40
2018-07-25T19:12:23.213Z,22.40
2018-07-25T19:14:56.924Z,22.40
2018-07-25T19:17:25.386Z,22.50
2018-07-25T19:19:53.777Z,22.50
2018-07-25T19:22:22.176Z,22.50
2018-07-25T19:24:50.604Z,22.50
2018-07-25T19:27:19.808Z,22.50
2018-07-25T19:29:48.240Z,22.50
2018-07-25T19:32:16.700Z,22.40
2018-07-25T19:37:13.452Z,22.50
2018-07-25T19:42:10.257Z,22.60
2018-07-25T19:44:38.765Z,22.60
2018-07-25T19:47:07.247Z,22.60
2018-07-25T19:49:36.012Z,22.60
2018-07-25T19:52:04.449Z,22.60
2018-07-25T19:54:33.182Z,22.60
2018-07-25T19:57:01.648Z,22.70
2018-07-25T19:59:30.148Z,22.70
2018-07-25T20:01:58.713Z,22.60
2018-07-25T20:04:27.116Z,22.50
2018-07-25T20:06:55.674Z,22.50
2018-07-25T20:11:54.065Z,22.30
2018-07-25T20:14:28.205Z,22.30
2018-07-25T20:16:57.016Z,22.30
2018-07-25T20:19:25.621Z,22.30
2018-07-25T20:21:54.344Z,22.30
2018-07-25T20:24:23.100Z,22.30
2018-07-25T20:26:51.664Z,22.20
2018-07-25T20:29:20.803Z,22.20
2018-07-25T20:31:49.214Z,22.20
2018-07-25T20:34:17.767Z,22.10
2018-07-25T20:36:46.235Z,22.10
2018-07-25T20:39:15.058Z,22.10
2018-07-25T20:41:43.639Z,22.00
2018-07-25T20:44:12.384Z,21.90
2018-07-25T20:49:09.224Z,21.90
2018-07-25T20:51:38.480Z,21.90
2018-07-25T20:54:07.451Z,21.80
2018-07-25T20:56:36.165Z,21.80
2018-07-25T20:59:04.808Z,21.70
2018-07-25T21:01:33.290Z,21.60
2018-07-25T21:07:00.821Z,21.50
2018-07-25T21:09:29.649Z,21.40
2018-07-25T21:11:58.099Z,21.40
2018-07-25T21:14:26.976Z,21.30
2018-07-25T21:16:55.994Z,21.30
2018-07-25T21:19:25.052Z,21.30
2018-07-25T21:21:53.926Z,21.20
2018-07-25T21:24:22.359Z,21.10
2018-07-25T21:26:50.769Z,21.10
2018-07-25T21:29:19.205Z,21.00
2018-07-25T21:31:47.592Z,21.00
2018-07-25T21:34:16.044Z,21.00
2018-07-25T21:36:44.448Z,21.00
2018-07-25T21:39:13.544Z,21.00
2018-07-25T21:41:42.311Z,20.90
2018-07-25T21:44:10.740Z,20.90
2018-07-25T21:46:39.183Z,20.80
2018-07-25T21:49:07.713Z,20.80
2018-07-25T21:51:36.189Z,20.70
2018-07-25T21:54:04.648Z,20.70
2018-07-25T21:56:33.105Z,20.60
2018-07-25T21:59:01.525Z,20.60
2018-07-25T22:01:29.953Z,20.60
2018-07-25T22:03:58.373Z,20.60
2018-07-25T22:06:26.793Z,20.50
2018-07-25T22:08:55.393Z,20.50
2018-07-25T22:11:23.784Z,20.40
2018-07-25T22:13:56.047Z,20.30
2018-07-25T22:16:25.433Z,20.20
2018-07-25T22:18:53.856Z,20.20
2018-07-25T22:21:22.261Z,20.10
2018-07-25T22:23:50.665Z,20.10
2018-07-25T22:26:19.104Z,20.00
2018-07-25T22:28:47.640Z,20.00
2018-07-25T22:31:16.113Z,20.00
2018-07-25T22:33:44.649Z,19.90
2018-07-25T22:36:13.086Z,19.90
2018-07-25T22:38:41.482Z,19.80
2018-07-25T22:41:09.949Z,19.80
2018-07-25T22:43:38.369Z,19.80
2018-07-25T22:46:06.826Z,19.80
2018-07-25T22:48:35.271Z,19.70
2018-07-25T22:51:03.685Z,19.60
2018-07-25T22:53:32.185Z,19.70
2018-07-25T22:56:00.648Z,19.60
2018-07-25T22:58:29.056Z,19.60
2018-07-25T23:00:57.729Z,19.60
2018-07-25T23:03:26.365Z,19.50
2018-07-25T23:05:54.873Z,19.50
2018-07-25T23:08:23.420Z,19.50
2018-07-25T23:10:51.869Z,19.50
2018-07-25T23:13:20.273Z,19.50
2018-07-25T23:15:48.700Z,19.40
2018-07-25T23:18:17.156Z,19.40
2018-07-25T23:20:45.551Z,19.30
2018-07-25T23:23:13.976Z,19.20
2018-07-25T23:25:42.384Z,19.20
2018-07-25T23:30:38.947Z,19.00
2018-07-25T23:33:07.440Z,19.00
2018-07-25T23:35:36.700Z,18.90
2018-07-25T23:38:05.128Z,18.80
2018-07-25T23:40:33.587Z,18.80
2018-07-25T23:43:02.060Z,18.80
2018-07-25T23:47:58.631Z,18.80
2018-07-25T23:50:27.213Z,18.80
2018-07-25T23:52:55.637Z,18.80
2018-07-25T23:55:24.036Z,18.80
2018-07-25T23:57:52.693Z,18.80
